Time;durP1;ratioP1;P1;durP2;ratioP2;P2;SDS_P1;SDS_P2;PMS_P1;PMS_P2;Temp;Humidity;BMP_temperature;BMP_pressure;BME280_temperature;BME280_humidity;BME280_pressure;Samples;Min_cycle;Max_cycle;Signal;HPM_P1;HPM_P2
2024/01/22 00:01:59;;;;;;;31.85;19.10;;;;;;;0.03;69.25;102842.88;5070455;28;20036;-75
2024/01/22 00:04:25;;;;;;;41.00;24.73;;;;;;;0.06;69.34;102839.34;5070518;28;20107;-76
2024/01/22 00:06:52;;;;;;;32.90;20.27;;;;;;;0.10;69.44;102841.06;5070117;28;20048;-74
2024/01/22 00:09:18;;;;;;;33.25;19.20;;;;;;;-0.03;69.20;102824.34;5070058;28;20028;-77
2024/01/22 00:11:43;;;;;;;34.28;19.83;;;;;;;0.05;68.97;102851.69;5070282;28;20027;-75
2024/01/22 00:14:09;;;;;;;30.65;17.73;;;;;;;0.13;69.05;102852.53;5070251;28;20025;-76
2024/01/22 00:16:41;;;;;;;29.15;19.08;;;;;;;0.04;68.93;102841.09;5070279;28;20571;-75
2024/01/22 00:19:07;;;;;;;;;;;;;;;-0.03;68.79;102856.97;5070893;28;20032;-73
2024/01/22 00:21:33;;;;;;;33.13;20.02;;;;;;;-0.09;69.05;102859.63;5071068;28;19916;-76
2024/01/22 00:23:58;;;;;;;34.72;20.02;;;;;;;-0.12;69.21;102862.28;5071033;28;20174;-76
2024/01/22 00:26:24;;;;;;;30.88;19.42;;;;;;;-0.18;69.19;102859.63;5082675;28;20194;-75
2024/01/22 00:28:49;;;;;;;32.60;19.83;;;;;;;-0.22;69.64;102852.63;5075691;28;20024;-77
2024/01/22 00:31:15;;;;;;;36.35;20.95;;;;;;;-0.20;69.48;102858.78;5070736;28;21012;-75
2024/01/22 00:33:43;;;;;;;37.30;19.58;;;;;;;-0.30;69.62;102841.16;5070490;28;20031;-73
2024/01/22 00:36:15;;;;;;;38.80;20.98;;;;;;;-0.73;69.73;102776.00;5069391;28;20152;-75
2024/01/22 00:38:41;;;;;;;30.23;19.65;;;;;;;-0.30;69.27;102857.03;5068662;28;20028;-76
2024/01/22 00:41:07;;;;;;;32.15;19.40;;;;;;;-0.36;69.71;102864.97;5069761;28;20036;-76
2024/01/22 00:43:33;;;;;;;35.08;21.17;;;;;;;-0.48;69.65;102851.75;5069786;28;20025;-75
2024/01/22 00:46:00;;;;;;;35.72;20.95;;;;;;;-0.46;69.78;102863.22;5069651;28;20020;-74
2024/01/22 00:48:26;;;;;;;35.80;21.48;;;;;;;-0.45;69.82;102867.59;5069467;28;20044;-74
2024/01/22 00:50:51;;;;;;;37.38;20.60;;;;;;;-0.46;70.03;102850.00;5069400;28;20404;-78
2024/01/22 00:53:17;;;;;;;34.28;19.88;;;;;;;-0.66;69.55;102825.31;5069519;28;20024;-74
2024/01/22 00:55:42;;;;;;;33.22;19.30;;;;;;;-0.51;69.54;102851.75;5069325;28;20024;-74
2024/01/22 00:58:08;;;;;;;35.38;20.42;;;;;;;-0.47;69.85;102853.53;5069340;28;20028;-73
2024/01/22 01:00:33;;;;;;;39.17;22.23;;;;;;;-0.49;69.55;102854.41;5069253;28;20035;-76
2024/01/22 01:02:59;;;;;;;43.80;20.83;;;;;;;-0.51;69.99;102846.47;5069451;28;20082;-75
2024/01/22 01:05:24;;;;;;;37.20;20.08;;;;;;;-0.51;70.02;102846.47;5069554;28;20024;-75
2024/01/22 01:07:50;;;;;;;30.15;18.48;;;;;;;-0.57;70.08;102846.47;5069236;28;20024;-75
2024/01/22 01:10:15;;;;;;;32.20;19.90;;;;;;;-0.63;70.34;102830.59;5070396;28;20063;-74
2024/01/22 01:12:41;;;;;;;38.05;20.67;;;;;;;-0.76;70.32;102818.28;5070029;28;20020;-77
2024/01/22 01:15:07;;;;;;;32.38;19.00;;;;;;;-0.67;70.62;102834.13;5070508;28;20032;-77
2024/01/22 01:17:32;;;;;;;34.42;21.00;;;;;;;-0.69;70.50;102836.78;5077074;28;20462;-75
2024/01/22 01:19:58;;;;;;;37.33;21.65;;;;;;;-0.75;70.82;102825.31;5073096;28;20090;-75
2024/01/22 01:22:23;;;;;;;32.67;19.63;;;;;;;-0.78;70.83;102833.25;5069087;28;20052;-76
2024/01/22 01:24:49;;;;;;;36.80;20.25;;;;;;;-0.91;71.28;102826.19;5068777;28;20400;-75
2024/01/22 01:27:18;;;;;;;36.25;21.10;;;;;;;-0.91;71.69;102818.25;5068782;28;20020;-75
2024/01/22 01:29:43;;;;;;;37.75;21.45;;;;;;;-0.98;71.74;102806.84;5068658;28;20135;-74
2024/01/22 01:32:09;;;;;;;40.67;22.45;;;;;;;-1.01;72.05;102811.25;5068589;28;20103;-74
2024/01/22 01:34:35;;;;;;;35.13;20.90;;;;;;;-0.98;72.11;102819.16;5068349;28;20113;-74
2024/01/22 01:37:01;;;;;;;35.15;21.05;;;;;;;-1.13;72.25;102801.50;5068362;28;20111;-74
2024/01/22 01:39:27;;;;;;;34.42;19.73;;;;;;;-1.07;72.04;102821.78;5068659;28;20056;-75
2024/01/22 01:41:52;;;;;;;32.25;19.80;;;;;;;-1.10;72.32;102815.59;5068411;28;20119;-75
2024/01/22 01:44:18;;;;;;;36.08;21.45;;;;;;;-1.14;72.45;102818.25;5068735;28;20617;-75
2024/01/22 01:46:44;;;;;;;40.30;23.25;;;;;;;-1.14;72.68;102812.97;5068622;28;20032;-75
2024/01/22 01:49:09;;;;;;;34.60;19.52;;;;;;;-1.19;73.00;102818.22;5068475;28;20090;-76
2024/01/22 01:51:37;;;;;;;38.30;21.35;;;;;;;-1.38;73.00;102787.41;5068322;28;20060;-74
2024/01/22 01:54:05;;;;;;;35.83;20.73;;;;;;;-1.20;73.31;102815.59;5049329;28;20051;-76
2024/01/22 01:56:31;;;;;;;39.00;21.13;;;;;;;-1.17;73.12;102820.91;5082681;28;20557;-76
2024/01/22 01:58:57;;;;;;;37.67;21.38;;;;;;;-1.34;72.84;102791.81;5068679;28;20587;-75
2024/01/22 02:01:23;;;;;;;33.33;19.65;;;;;;;-1.26;73.24;102810.31;5069422;28;20099;-75
2024/01/22 02:03:49;;;;;;;35.13;21.50;;;;;;;-1.26;73.50;102816.47;5068784;28;20345;-74
2024/01/22 02:06:14;;;;;;;40.00;22.50;;;;;;;-1.26;73.42;102812.97;5070824;28;20031;-74
2024/01/22 02:08:49;;;;;;;35.72;20.35;;;;;;;-1.28;73.34;102818.22;5071357;28;20025;-74
2024/01/22 02:11:14;;;;;;;36.80;22.77;;;;;;;-1.28;73.37;102826.13;5070424;28;20012;-74
2024/01/22 02:13:40;;;;;;;36.35;21.58;;;;;;;-1.28;73.73;102826.13;5067770;28;20063;-76
2024/01/22 02:16:06;;;;;;;33.95;21.92;;;;;;;-1.32;73.55;102816.47;5068096;28;20105;-75
2024/01/22 02:18:31;;;;;;;38.58;22.08;;;;;;;-1.31;73.74;102814.69;5067771;28;20436;-75
2024/01/22 02:20:57;;;;;;;41.30;22.25;;;;;;;-1.44;73.38;102790.06;5067387;28;21151;-75
2024/01/22 02:23:22;;;;;;;39.83;22.80;;;;;;;-1.35;73.92;102808.53;5085268;28;20036;-75
2024/01/22 02:25:48;;;;;;;40.38;22.08;;;;;;;-1.31;74.09;102801.47;5085339;28;20040;-76
2024/01/22 02:28:13;;;;;;;43.47;23.48;;;;;;;-1.34;74.60;102801.47;5085091;28;20095;-74
2024/01/22 02:30:39;;;;;;;38.05;23.02;;;;;;;-1.33;73.95;102809.41;5085415;28;20034;-76
2024/01/22 02:33:04;;;;;;;37.30;22.42;;;;;;;-1.27;74.50;102819.09;5085122;28;20060;-75
2024/01/22 02:35:30;;;;;;;39.97;21.70;;;;;;;-1.26;74.43;102800.66;5084940;28;20623;-75
2024/01/22 02:37:55;;;;;;;38.35;21.63;;;;;;;-1.43;74.08;102769.78;5085072;28;20055;-76
2024/01/22 02:40:21;;;;;;;39.08;22.48;;;;;;;-1.21;74.16;102809.44;5085464;28;20158;-74
2024/01/22 02:42:46;;;;;;;36.10;22.60;;;;;;;-1.38;74.05;102784.78;5085202;28;20517;-76
2024/01/22 02:45:12;;;;;;;36.70;21.00;;;;;;;-1.45;73.83;102775.09;5084820;28;20118;-76
2024/01/22 02:47:37;;;;;;;38.95;24.38;;;;;;;-1.26;73.85;102811.19;5085043;28;20072;-75
2024/01/22 02:50:03;;;;;;;41.90;21.58;;;;;;;-1.24;74.33;102819.09;5085078;28;20507;-75
2024/01/22 02:52:28;;;;;;;39.90;22.30;;;;;;;-1.39;74.01;102782.13;5086238;28;20059;-76
2024/01/22 02:54:54;;;;;;;38.25;22.90;;;;;;;-1.42;74.00;102766.28;5072944;28;20055;-75
2024/01/22 02:57:19;;;;;;;33.83;21.98;;;;;;;-1.45;74.06;102761.88;5072307;28;20032;-76
2024/01/22 02:59:45;;;;;;;40.28;22.10;;;;;;;-1.35;74.28;102774.22;5077797;28;20113;-75
2024/01/22 03:02:10;;;;;;;36.22;21.33;;;;;;;-1.48;74.53;102759.25;5071887;28;20069;-76
2024/01/22 03:04:36;;;;;;;39.67;23.20;;;;;;;-1.32;74.67;102783.91;5067425;28;20036;-75
2024/01/22 03:07:02;;;;;;;36.53;21.95;;;;;;;-1.31;74.54;102775.09;5067259;28;20443;-75
2024/01/22 03:09:27;;;;;;;37.65;23.08;;;;;;;-1.31;74.91;102786.53;5067160;28;20028;-74
2024/01/22 03:11:53;;;;;;;41.42;24.20;;;;;;;-1.44;74.97;102744.31;5067182;28;20093;-78
2024/01/22 03:14:18;;;;;;;42.33;26.42;;;;;;;-1.33;74.89;102782.13;5067031;28;20412;-74
2024/01/22 03:16:44;;;;;;;37.72;24.75;;;;;;;-1.36;74.76;102772.47;5067300;28;20028;-75
2024/01/22 03:19:09;;;;;;;33.92;22.60;;;;;;;-1.54;75.05;102745.16;5066948;28;20028;-75
2024/01/22 03:21:34;;;;;;;38.28;22.77;;;;;;;-1.37;75.14;102768.03;5067526;28;20028;-74
2024/01/22 03:24:00;;;;;;;39.63;23.17;;;;;;;-1.34;75.22;102760.13;5067074;28;20032;-75
2024/01/22 03:26:26;;;;;;;38.85;24.10;;;;;;;-1.25;75.13;102762.78;5067201;28;20029;-77
2024/01/22 03:28:52;;;;;;;41.10;24.17;;;;;;;-1.18;75.46;102768.97;5067649;28;20090;-74
2024/01/22 03:31:27;;;;;;;33.03;21.35;;;;;;;-1.16;75.22;102764.53;5067006;28;20028;-74
2024/01/22 03:33:54;;;;;;;45.88;22.95;;;;;;;-1.13;75.29;102760.16;5067094;28;20484;-75
2024/01/22 03:36:24;;;;;;;36.28;24.67;;;;;;;-1.06;74.86;102774.25;5067419;28;20076;-75
2024/01/22 03:38:50;;;;;;;38.08;24.42;;;;;;;-1.01;74.95;102774.25;5067446;28;20024;-75
2024/01/22 03:41:16;;;;;;;40.42;23.33;;;;;;;-1.08;74.55;102754.88;5067612;28;20032;-74
2024/01/22 03:43:42;;;;;;;37.70;22.75;;;;;;;-1.13;74.57;102746.06;5068699;28;20388;-73
2024/01/22 03:46:09;;;;;;;32.95;22.73;;;;;;;-0.90;74.52;102777.78;5067300;28;20029;-74
2024/01/22 03:48:35;;;;;;;39.53;24.67;;;;;;;-0.97;74.45;102752.22;5068804;28;20491;-74
2024/01/22 03:51:00;;;;;;;35.20;22.30;;;;;;;-0.81;74.27;102783.94;5071657;28;20029;-74
2024/01/22 03:53:26;;;;;;;36.45;24.42;;;;;;;-0.75;73.76;102769.84;5071501;28;20032;-74
2024/01/22 03:55:51;;;;;;;37.88;23.00;;;;;;;-0.75;73.52;102769.84;5070525;28;20468;-74
2024/01/22 03:58:16;;;;;;;34.50;22.50;;;;;;;-1.02;73.75;102727.59;5067554;28;20033;-78
2024/01/22 04:00:42;;;;;;;35.78;23.20;;;;;;;-0.75;73.49;102772.50;5065221;28;20066;-74
2024/01/22 04:03:08;;;;;;;35.30;22.98;;;;;;;-0.66;73.80;102777.75;5080934;28;20043;-74
2024/01/22 04:05:34;;;;;;;37.63;23.15;;;;;;;-0.84;73.30;102735.50;5066810;28;20368;-77
2024/01/22 04:07:59;;;;;;;34.25;22.98;;;;;;;-0.65;73.19;102758.41;5064126;28;20041;-75
2024/01/22 04:10:26;;;;;;;34.63;20.52;;;;;;;-0.64;72.92;102776.00;5066675;28;20058;-74
2024/01/22 04:12:55;;;;;;;34.50;22.23;;;;;;;-0.63;72.74;102783.94;5067454;28;20028;-75
2024/01/22 04:15:20;;;;;;;35.42;23.08;;;;;;;-0.68;72.99;102763.69;5070124;28;20063;-75
2024/01/22 04:17:46;;;;;;;37.28;23.73;;;;;;;-0.83;72.45;102748.72;5070032;28;20048;-76
2024/01/22 04:20:11;;;;;;;39.55;22.88;;;;;;;-0.62;72.04;102784.81;5070202;28;20024;-75
2024/01/22 04:22:37;;;;;;;32.03;21.65;;;;;;;-0.73;72.12;102762.78;5070194;28;20028;-76
2024/01/22 04:25:03;;;;;;;31.90;21.05;;;;;;;-0.66;71.99;102768.09;5070298;28;20036;-75
2024/01/22 04:27:29;;;;;;;36.63;22.73;;;;;;;-0.66;72.69;102759.25;5070377;28;20025;-75
2024/01/22 04:29:54;;;;;;;30.23;20.42;;;;;;;-0.51;72.08;102775.09;5069868;28;20047;-74
2024/01/22 04:32:20;;;;;;;34.15;22.55;;;;;;;-0.50;71.95;102779.50;5070164;28;20048;-75
2024/01/22 04:34:46;;;;;;;38.35;22.92;;;;;;;-0.52;71.69;102775.97;5070890;28;20114;-75
2024/01/22 04:37:13;;;;;;;38.40;22.02;;;;;;;-0.37;72.20;102775.09;5070817;28;20031;-75
2024/01/22 04:39:40;;;;;;;31.83;21.42;;;;;;;-0.37;71.96;102770.69;5070474;28;21270;-77
2024/01/22 04:42:06;;;;;;;35.45;21.20;;;;;;;-0.19;71.73;102796.19;5070591;28;20020;-74
2024/01/22 04:44:31;;;;;;;31.30;20.73;;;;;;;-0.21;71.43;102793.53;5070199;28;20115;-75
2024/01/22 04:46:58;;;;;;;34.72;22.10;;;;;;;-0.19;71.23;102791.78;5069986;28;20025;-75
2024/01/22 04:49:24;;;;;;;38.92;21.83;;;;;;;-0.15;70.78;102797.94;5084184;28;20043;-75
2024/01/22 04:51:50;;;;;;;37.00;23.67;;;;;;;-0.05;70.61;102795.25;5069481;28;20029;-75
2024/01/22 04:54:15;;;;;;;32.95;22.02;;;;;;;-0.13;70.44;102775.03;5069358;28;20023;-74
2024/01/22 04:56:42;;;;;;;40.60;22.33;;;;;;;0.05;70.63;102796.13;5083693;28;20067;-73
2024/01/22 04:59:08;;;;;;;32.95;21.70;;;;;;;0.07;69.99;102791.69;5069461;28;20032;-76
2024/01/22 05:01:34;;;;;;;35.67;22.45;;;;;;;0.09;70.04;102791.69;5069280;28;20056;-76
2024/01/22 05:03:59;;;;;;;30.42;21.02;;;;;;;0.16;69.66;102777.53;5069245;28;20067;-74
2024/01/22 05:06:25;;;;;;;34.15;22.02;;;;;;;0.10;69.50;102772.28;5067875;28;20059;-76
2024/01/22 05:08:50;;;;;;;30.08;20.63;;;;;;;0.21;69.22;102771.38;5069061;28;20052;-76
2024/01/22 05:11:16;;;;;;;27.00;17.42;;;;;;;0.41;68.68;102789.78;5069086;28;20385;-76
2024/01/22 05:13:48;;;;;;;32.25;21.58;;;;;;;0.29;68.36;102768.66;5069039;28;20025;-74
2024/01/22 05:16:15;;;;;;;31.35;19.52;;;;;;;0.46;67.93;102788.88;5069304;28;20223;-74
2024/01/22 05:18:41;;;;;;;35.10;22.25;;;;;;;0.50;67.76;102797.66;5069190;28;20033;-77
2024/01/22 05:21:06;;;;;;;29.52;19.67;;;;;;;0.58;67.23;102797.66;5069298;28;20058;-75
2024/01/22 05:23:32;;;;;;;27.90;19.40;;;;;;;0.61;67.60;102795.88;5069374;28;20032;-75
2024/01/22 05:25:57;;;;;;;33.00;21.60;;;;;;;0.62;67.51;102794.97;5069876;28;20063;-73
2024/01/22 05:28:23;;;;;;;27.50;19.15;;;;;;;0.62;67.51;102773.78;5069220;28;20693;-74
2024/01/22 05:30:48;;;;;;;36.47;21.95;;;;;;;0.68;67.63;102794.91;5074717;28;20029;-74
2024/01/22 05:33:14;;;;;;;42.67;22.75;;;;;;;0.65;67.38;102791.41;5078082;28;20395;-77
2024/01/22 05:35:39;;;;;;;40.75;22.52;;;;;;;0.66;67.65;102783.47;5068995;28;20091;-75
2024/01/22 05:38:05;;;;;;;36.80;21.65;;;;;;;0.56;67.27;102752.63;5068798;28;20027;-75
2024/01/22 05:40:30;;;;;;;33.45;22.80;;;;;;;0.70;67.66;102776.38;5068343;28;20040;-75
2024/01/22 05:42:56;;;;;;;36.53;24.00;;;;;;;0.73;67.18;102782.56;5068491;28;20503;-76
2024/01/22 05:45:21;;;;;;;36.10;22.00;;;;;;;0.69;67.47;102778.16;5068025;28;20032;-76
2024/01/22 05:47:47;;;;;;;30.92;19.80;;;;;;;0.85;67.29;102794.81;5067027;28;20020;-75
2024/01/22 05:50:12;;;;;;;37.45;24.65;;;;;;;0.84;67.23;102796.59;5068318;28;20112;-75
2024/01/22 05:52:38;;;;;;;38.28;25.05;;;;;;;0.95;67.49;102799.16;5068207;28;20025;-74
2024/01/22 05:55:04;;;;;;;48.05;26.65;;;;;;;0.83;67.35;102763.03;5068072;28;20058;-74
2024/01/22 05:57:29;;;;;;;42.83;20.70;;;;;;;1.11;67.13;102790.19;5067977;28;20407;-75
2024/01/22 05:59:55;;;;;;;28.08;19.83;;;;;;;1.23;66.54;102787.44;5068066;28;20031;-76
2024/01/22 06:02:20;;;;;;;32.63;20.70;;;;;;;1.33;66.05;102790.91;5067987;28;20542;-74
2024/01/22 06:04:46;;;;;;;32.05;21.00;;;;;;;1.18;65.76;102769.84;5068112;28;20033;-72
2024/01/22 06:07:11;;;;;;;33.88;20.67;;;;;;;1.28;65.77;102788.31;5067986;28;20446;-74
2024/01/22 06:09:37;;;;;;;42.75;21.10;;;;;;;1.27;65.10;102796.25;5068170;28;20545;-76
2024/01/22 06:12:03;;;;;;;28.92;19.15;;;;;;;1.27;65.35;102801.56;5068066;28;20029;-76
2024/01/22 06:14:29;;;;;;;33.75;19.45;;;;;;;1.30;65.04;102802.41;5068567;28;20610;-75
2024/01/22 06:16:54;;;;;;;35.90;21.00;;;;;;;1.40;65.45;102808.53;5069028;28;20082;-75
2024/01/22 06:19:20;;;;;;;30.40;20.20;;;;;;;1.46;65.21;102808.47;5066747;28;20071;-74
2024/01/22 06:21:45;;;;;;;33.50;20.23;;;;;;;1.54;65.00;102809.25;5074553;28;20078;-74
2024/01/22 06:24:11;;;;;;;36.53;22.17;;;;;;;1.58;64.50;102809.25;5075413;28;20036;-76
2024/01/22 06:26:36;;;;;;;47.60;24.45;;;;;;;1.40;64.42;102780.25;5068345;28;20115;-74
2024/01/22 06:29:02;;;;;;;35.67;22.95;;;;;;;1.64;64.54;102818.91;5067582;28;20452;-74
2024/01/22 06:31:28;;;;;;;32.45;21.15;;;;;;;1.72;63.78;102826.78;5067344;28;20032;-77
2024/01/22 06:33:53;;;;;;;37.13;21.92;;;;;;;1.81;63.97;102822.25;5067759;28;20107;-75
2024/01/22 06:36:19;;;;;;;37.65;23.70;;;;;;;1.82;63.82;102818.72;5081773;28;20056;-75
2024/01/22 06:38:44;;;;;;;39.92;23.05;;;;;;;1.86;63.54;102820.47;5066139;28;20056;-73
2024/01/22 06:41:15;;;;;;;35.58;21.27;;;;;;;1.83;63.27;102830.22;5067339;28;20284;-76
2024/01/22 06:43:40;;;;;;;32.63;21.67;;;;;;;1.68;63.35;102803.84;5067242;28;20032;-74
2024/01/22 06:46:06;;;;;;;41.22;21.85;;;;;;;1.62;63.70;102831.31;5067668;28;20036;-76
2024/01/22 06:48:32;;;;;;;29.70;19.25;;;;;;;1.76;63.66;102828.50;5067546;28;20047;-75
2024/01/22 06:50:57;;;;;;;34.53;20.30;;;;;;;1.75;63.78;102832.94;5067206;28;20028;-74
2024/01/22 06:53:23;;;;;;;37.85;22.52;;;;;;;1.82;63.99;102829.34;5067409;28;21367;-75
2024/01/22 06:55:48;;;;;;;34.40;20.65;;;;;;;1.80;63.94;102799.28;5067334;28;20067;-74
2024/01/22 06:58:14;;;;;;;30.75;19.90;;;;;;;2.03;63.67;102841.50;5067565;28;20032;-75
2024/01/22 07:00:39;;;;;;;34.33;18.17;;;;;;;2.05;63.31;102842.34;5067800;28;20573;-74
2024/01/22 07:03:05;;;;;;;37.15;20.30;;;;;;;2.08;63.19;102837.88;5067548;28;20051;-77
2024/01/22 07:05:32;;;;;;;33.75;20.25;;;;;;;2.07;63.11;102837.91;5067442;28;20653;-76
2024/01/22 07:07:58;;;;;;;32.95;19.25;;;;;;;1.94;63.22;102813.28;5067772;28;20052;-76
2024/01/22 07:10:23;;;;;;;34.65;20.67;;;;;;;2.15;63.27;102834.28;5068324;28;20076;-75
2024/01/22 07:12:49;;;;;;;27.17;20.60;;;;;;;2.17;63.43;102837.78;5070074;28;20051;-76
2024/01/22 07:15:15;;;;;;;33.05;18.80;;;;;;;2.26;63.14;102838.59;5076269;28;20032;-74
2024/01/22 07:17:41;;;;;;;30.30;20.48;;;;;;;2.26;63.04;102836.81;5068059;28;20028;-74
2024/01/22 07:20:13;;;;;;;41.13;20.25;;;;;;;2.25;62.85;102836.81;5067236;28;20032;-75
2024/01/22 07:22:40;;;;;;;37.13;18.38;;;;;;;2.16;62.91;102836.03;5082609;28;20108;-74
2024/01/22 07:25:06;;;;;;;38.97;21.33;;;;;;;2.03;63.36;102839.72;5067036;28;20040;-77
2024/01/22 07:27:32;;;;;;;32.75;20.25;;;;;;;2.03;63.23;102796.38;5068897;28;20131;-77
2024/01/22 07:29:57;;;;;;;30.63;18.35;;;;;;;2.23;62.90;102833.31;5070140;28;20047;-74
2024/01/22 07:32:23;;;;;;;34.58;17.25;;;;;;;2.43;62.67;102844.56;5070088;28;20488;-75
2024/01/22 07:34:48;;;;;;;30.23;18.65;;;;;;;2.58;62.26;102847.91;5071850;28;20044;-74
2024/01/22 07:37:14;;;;;;;30.95;17.13;;;;;;;2.59;61.55;102840.81;5070817;28;20469;-77
2024/01/22 07:39:39;;;;;;;33.70;18.70;;;;;;;2.48;61.07;102811.72;5072262;28;20036;-74
2024/01/22 07:42:05;;;;;;;27.42;17.48;;;;;;;2.69;60.76;102842.47;5072882;28;20108;-74
2024/01/22 07:44:30;;;;;;;28.80;17.80;;;;;;;2.70;60.74;102845.09;5073326;28;20036;-73
2024/01/22 07:46:56;;;;;;;26.95;19.10;;;;;;;2.63;60.84;102853.19;5072969;28;20028;-77
2024/01/22 07:49:22;;;;;;;27.88;19.08;;;;;;;2.60;61.04;102843.44;5075626;28;20028;-73
2024/01/22 07:51:47;;;;;;;50.75;20.38;;;;;;;2.76;61.01;102860.06;5076862;28;20472;-75
2024/01/22 07:54:13;;;;;;;42.25;20.83;;;;;;;2.68;60.83;102838.03;5076868;28;20092;-77
2024/01/22 07:56:39;;;;;;;29.77;18.10;;;;;;;2.83;60.58;102867.06;5075997;28;20044;-76
2024/01/22 07:59:04;;;;;;;32.38;19.52;;;;;;;2.70;60.77;102861.03;5077746;28;20055;-74
2024/01/22 08:01:30;;;;;;;31.33;19.20;;;;;;;2.56;60.96;102848.84;5076370;28;20024;-77
2024/01/22 08:03:56;;;;;;;27.25;19.05;;;;;;;2.44;61.60;102846.34;5089567;28;20103;-80
2024/01/22 08:06:21;;;;;;;33.78;20.45;;;;;;;2.36;61.86;102843.75;5092120;28;20028;-75
2024/01/22 08:08:49;;;;;;;58.90;20.88;;;;;;;2.38;61.95;102851.72;5070633;28;20032;-75
2024/01/22 08:11:14;;;;;;;34.10;19.83;;;;;;;2.31;62.21;102852.69;5072186;28;20032;-74
2024/01/22 08:13:40;;;;;;;33.65;21.50;;;;;;;2.24;62.53;102845.66;5070809;28;20035;-75
2024/01/22 08:16:05;;;;;;;29.55;20.30;;;;;;;2.20;62.64;102856.31;5070782;28;20088;-75
2024/01/22 08:18:31;;;;;;;42.83;20.02;;;;;;;2.20;63.24;102864.28;5070642;28;20048;-76
2024/01/22 08:20:56;;;;;;;32.30;20.67;;;;;;;1.86;63.59;102790.38;5070406;28;20027;-75
2024/01/22 08:23:22;;;;;;;31.95;20.58;;;;;;;2.32;63.63;102863.31;5070028;28;20021;-76
2024/01/22 08:25:47;;;;;;;37.50;20.20;;;;;;;2.34;63.35;102848.22;5070470;28;20024;-74
2024/01/22 08:28:13;;;;;;;36.90;19.40;;;;;;;2.52;63.27;102850.63;5070099;28;20116;-74
2024/01/22 08:30:38;;;;;;;28.50;18.42;;;;;;;2.66;63.50;102853.13;5069933;28;20025;-74
2024/01/22 08:33:04;;;;;;;27.17;18.92;;;;;;;2.74;62.96;102861.88;5068782;28;20052;-74
2024/01/22 08:35:30;;;;;;;30.58;18.17;;;;;;;2.83;62.85;102858.19;5069786;28;20508;-74
2024/01/22 08:37:55;;;;;;;35.38;19.58;;;;;;;2.99;63.00;102855.31;5069756;28;20021;-75
2024/01/22 08:40:22;;;;;;;43.05;20.42;;;;;;;3.12;62.53;102858.69;5050944;28;20048;-76
2024/01/22 08:42:52;;;;;;;28.27;18.35;;;;;;;3.24;61.70;102848.72;5067639;28;20102;-74
2024/01/22 08:45:19;;;;;;;36.85;18.95;;;;;;;3.34;61.76;102840.59;5070456;28;20025;-74
2024/01/22 08:47:46;;;;;;;35.90;17.52;;;;;;;3.57;61.17;102852.63;5070616;28;20074;-75
2024/01/22 08:50:18;;;;;;;34.38;18.98;;;;;;;3.72;60.08;102856.78;5070444;28;20021;-75
2024/01/22 08:52:46;;;;;;;29.17;16.45;;;;;;;3.85;59.58;102858.34;5071133;28;20021;-74
2024/01/22 08:55:11;;;;;;;34.35;18.88;;;;;;;3.92;59.33;102841.34;5076917;28;20092;-76
2024/01/22 08:57:38;;;;;;;34.97;19.25;;;;;;;4.14;59.05;102841.81;5073711;28;20488;-76
2024/01/22 09:00:10;;;;;;;36.78;16.00;;;;;;;4.29;58.94;102844.16;5068908;28;20059;-74
2024/01/22 09:02:36;;;;;;;25.30;16.58;;;;;;;4.38;57.86;102855.50;5069375;28;20025;-78
2024/01/22 09:05:03;;;;;;;33.72;17.45;;;;;;;4.32;57.88;102844.97;5069577;28;20032;-75
2024/01/22 09:07:28;;;;;;;37.95;17.77;;;;;;;4.36;58.74;102828.03;5069409;28;20032;-74
2024/01/22 09:09:54;;;;;;;42.33;25.55;;;;;;;4.51;57.88;102834.81;5069502;28;20035;-76
2024/01/22 09:12:19;;;;;;;32.70;18.10;;;;;;;4.40;56.65;102827.03;5069011;28;20028;-76
2024/01/22 09:14:45;;;;;;;22.65;15.68;;;;;;;4.35;56.91;102823.59;5068855;28;20376;-75
2024/01/22 09:17:10;;;;;;;40.50;17.88;;;;;;;4.29;56.84;102821.06;5069053;28;20035;-75
2024/01/22 09:19:36;;;;;;;63.97;19.38;;;;;;;4.16;57.27;102784.94;5069099;28;20032;-74
2024/01/22 09:22:01;;;;;;;34.70;17.05;;;;;;;4.34;56.90;102810.34;5069186;28;20556;-74
2024/01/22 09:24:27;;;;;;;49.85;18.52;;;;;;;4.26;56.99;102781.19;5068962;28;20505;-77
2024/01/22 09:26:52;;;;;;;33.92;16.23;;;;;;;4.54;56.86;102805.44;5069041;28;20032;-74
2024/01/22 09:29:17;;;;;;;26.40;15.80;;;;;;;4.52;56.64;102803.72;5068852;28;20034;-74
2024/01/22 09:31:43;;;;;;;44.13;21.67;;;;;;;4.55;55.85;102803.66;5068824;28;20021;-74
2024/01/22 09:34:09;;;;;;;48.25;19.05;;;;;;;4.63;56.38;102797.25;5069142;28;20020;-75
2024/01/22 09:36:35;;;;;;;26.02;18.48;;;;;;;4.81;56.37;102801.28;5069638;28;20080;-77
2024/01/22 09:39:00;;;;;;;21.80;15.88;;;;;;;4.80;55.89;102778.22;5069569;28;20123;-74
2024/01/22 09:41:27;;;;;;;27.70;16.00;;;;;;;4.78;55.02;102769.38;5068924;28;20456;-75
2024/01/22 09:43:54;;;;;;;39.13;16.00;;;;;;;4.98;55.24;102788.47;5069987;28;20089;-76
2024/01/22 09:46:22;;;;;;;38.45;16.33;;;;;;;5.03;54.57;102796.34;5069666;28;20028;-77
2024/01/22 09:48:50;;;;;;;64.05;19.40;;;;;;;5.04;54.36;102785.66;5070531;28;20032;-74
2024/01/22 09:51:17;;;;;;;34.63;17.33;;;;;;;5.03;55.00;102796.34;5074495;28;20028;-76
2024/01/22 09:53:46;;;;;;;25.13;16.08;;;;;;;4.96;55.20;102790.25;5067291;28;20045;-75
2024/01/22 09:56:16;;;;;;;52.17;18.00;;;;;;;5.00;54.91;102791.06;5068444;28;20035;-74
2024/01/22 09:58:45;;;;;;;28.70;17.52;;;;;;;4.78;54.94;102756.91;5068265;28;20064;-76
2024/01/22 10:01:11;;;;;;;30.95;17.17;;;;;;;4.85;55.05;102761.19;5068241;28;20516;-76
2024/01/22 10:03:37;;;;;;;59.70;18.00;;;;;;;5.09;55.02;102788.19;5068064;28;20040;-78
2024/01/22 10:06:03;;;;;;;34.92;16.65;;;;;;;5.14;55.07;102789.81;5068212;28;20055;-75
2024/01/22 10:08:29;;;;;;;45.90;19.50;;;;;;;5.23;54.54;102778.91;5068028;28;20025;-74
2024/01/22 10:10:55;;;;;;;48.65;18.58;;;;;;;5.14;54.71;102747.13;5068123;28;20112;-74
2024/01/22 10:13:20;;;;;;;71.72;20.40;;;;;;;5.44;55.08;102769.53;5068067;28;20661;-75
2024/01/22 10:15:46;;;;;;;59.97;20.25;;;;;;;5.49;54.35;102748.91;5068131;28;20029;-75
2024/01/22 10:18:16;;;;;;;56.28;18.92;;;;;;;5.65;53.67;102765.41;5064752;28;20079;-74
2024/01/22 10:20:46;;;;;;;33.35;17.15;;;;;;;5.73;53.53;102774.06;5065259;28;20044;-74
2024/01/22 10:23:13;;;;;;;46.42;17.88;;;;;;;5.64;53.21;102769.84;5065199;28;20517;-77
2024/01/22 10:25:39;;;;;;;29.77;16.35;;;;;;;5.41;53.51;102762.44;5065760;28;20032;-76
2024/01/22 10:28:18;;;;;;;50.58;17.00;;;;;;;5.28;53.34;102763.69;5066055;28;20440;-74
2024/01/22 10:30:45;;;;;;;27.90;16.58;;;;;;;5.19;53.81;102744.38;5066530;28;20141;-73
2024/01/22 10:33:14;;;;;;;33.67;18.48;;;;;;;5.36;53.79;102768.81;5065373;28;20028;-75
2024/01/22 10:35:41;;;;;;;94.35;21.23;;;;;;;5.37;53.95;102771.47;5066755;28;20068;-75
2024/01/22 10:38:09;;;;;;;31.55;17.63;;;;;;;5.41;54.11;102766.94;5071713;28;20183;-74
2024/01/22 10:40:37;;;;;;;32.70;17.65;;;;;;;5.48;54.16;102757.81;5065274;28;20585;-76
2024/01/22 10:43:26;;;;;;;34.03;19.13;;;;;;;5.46;54.08;102760.56;5064918;28;20124;-75
2024/01/22 10:45:56;;;;;;;32.83;17.02;;;;;;;5.58;53.86;102756.69;5081803;28;20122;-75
2024/01/22 10:48:24;;;;;;;43.42;17.13;;;;;;;5.49;52.84;102723.09;5065296;28;20055;-76
2024/01/22 10:50:52;;;;;;;35.20;17.10;;;;;;;5.31;52.89;102685.34;5067672;28;20103;-75
2024/01/22 10:53:19;;;;;;;66.20;19.88;;;;;;;5.58;53.52;102718.44;5067553;28;20033;-75
2024/01/22 10:55:58;;;;;;;50.60;17.67;;;;;;;5.68;53.16;102718.13;5067450;28;20031;-75
2024/01/22 10:58:40;;;;;;;126.78;22.88;;;;;;;5.85;52.95;102739.00;5067349;28;20025;-77
2024/01/22 11:01:16;;;;;;;98.45;22.45;;;;;;;5.90;52.31;102731.81;5067692;28;20040;-76
2024/01/22 11:03:50;;;;;;;63.17;15.18;;;;;;;5.93;51.40;102721.03;5067523;28;20119;-74
2024/01/22 11:06:20;;;;;;;67.85;17.80;;;;;;;5.94;51.30;102730.78;5067606;28;20029;-74
2024/01/22 11:08:49;;;;;;;45.13;17.13;;;;;;;5.86;51.50;102698.97;5065137;28;20764;-74
2024/01/22 11:11:18;;;;;;;33.25;15.18;;;;;;;5.94;51.63;102726.31;5067737;28;20029;-75